Time;durP1;ratioP1;P1;durP2;ratioP2;P2;SDS_P1;SDS_P2;PMS_P1;PMS_P2;Temp;Humidity;BMP_temperature;BMP_pressure;BME280_temperature;BME280_humidity;BME280_pressure;Samples;Min_cycle;Max_cycle;Signal;HPM_P1;HPM_P2
2023/09/09 00:01:49;;;;;;;23.23;17.95;;;;;;;20.23;100.00;101409.00;5095215;28;20027;-89
2023/09/09 00:04:17;;;;;;;24.60;18.65;;;;;;;20.21;100.00;101409.28;5111989;28;20024;-89
2023/09/09 00:06:42;;;;;;;23.73;19.60;;;;;;;20.16;100.00;101407.28;5095374;28;20040;-89
2023/09/09 00:09:10;;;;;;;26.60;20.00;;;;;;;20.15;100.00;101408.41;5096954;28;20468;-89
2023/09/09 00:11:43;;;;;;;25.65;18.70;;;;;;;20.15;100.00;101410.31;5095023;28;20121;-89
2023/09/09 00:14:14;;;;;;;22.97;18.10;;;;;;;20.11;100.00;101400.94;5078314;28;20107;-89
2023/09/09 00:16:39;;;;;;;24.75;20.40;;;;;;;20.08;100.00;101404.25;5096538;28;20042;-89
2023/09/09 00:19:05;;;;;;;22.97;18.73;;;;;;;20.05;100.00;101397.34;5094867;28;20118;-89
2023/09/09 00:21:30;;;;;;;21.90;18.65;;;;;;;20.03;100.00;101407.75;5095141;28;20036;-89
2023/09/09 00:23:56;;;;;;;26.80;18.77;;;;;;;20.01;100.00;101398.13;5094859;28;20035;-88
2023/09/09 00:26:22;;;;;;;31.20;21.20;;;;;;;19.97;100.00;101401.41;5095082;28;20032;-88
2023/09/09 00:28:49;;;;;;;25.10;19.97;;;;;;;19.91;100.00;101402.44;5094804;28;20111;-89
2023/09/09 00:31:15;;;;;;;27.00;21.60;;;;;;;19.92;100.00;101393.09;5093916;28;20050;-88
2023/09/09 00:33:43;;;;;;;24.87;20.70;;;;;;;19.90;100.00;101395.31;5095581;28;20472;-89
2023/09/09 00:36:15;;;;;;;28.57;20.33;;;;;;;19.88;100.00;101397.47;5094504;28;20289;-90
2023/09/09 00:38:43;;;;;;;28.83;22.35;;;;;;;19.82;100.00;101400.47;5094914;28;20093;-89
2023/09/09 00:41:23;;;;;;;25.23;21.05;;;;;;;19.79;100.00;101399.06;5077884;28;20032;-89
2023/09/09 00:43:49;;;;;;;30.23;22.67;;;;;;;19.75;100.00;101393.25;5095982;28;20036;-90
2023/09/09 00:46:18;;;;;;;26.00;22.40;;;;;;;19.72;100.00;101393.75;5094391;28;20032;-90
2023/09/09 00:48:44;;;;;;;24.30;21.63;;;;;;;19.70;100.00;101395.94;5094141;28;20277;-89
2023/09/09 00:51:13;;;;;;;27.50;23.08;;;;;;;19.66;100.00;101386.53;5094335;28;20040;-90
2023/09/09 00:53:41;;;;;;;26.88;22.27;;;;;;;19.66;100.00;101399.50;5094246;28;20032;-89
2023/09/09 00:56:10;;;;;;;34.30;24.17;;;;;;;19.59;100.00;101394.19;5095682;28;20032;-89
2023/09/09 00:58:39;;;;;;;29.25;23.08;;;;;;;19.57;100.00;101394.47;5095272;28;20028;-89
2023/09/09 01:01:05;;;;;;;28.07;23.57;;;;;;;19.57;100.00;101404.66;5094003;28;20093;-90
2023/09/09 01:03:31;;;;;;;27.35;23.35;;;;;;;19.55;100.00;101393.91;5093966;28;20490;-89
2023/09/09 01:05:59;;;;;;;29.08;24.15;;;;;;;19.54;100.00;101388.66;5111104;28;20036;-89
2023/09/09 01:08:49;;;;;;;28.58;23.20;;;;;;;19.52;100.00;101397.19;5095336;28;20131;-89
2023/09/09 01:11:15;;;;;;;30.07;23.93;;;;;;;19.51;100.00;101395.50;5094210;28;20028;-90
2023/09/09 01:13:48;;;;;;;31.23;24.88;;;;;;;19.48;100.00;101390.53;5093911;28;20028;-90
2023/09/09 01:16:14;;;;;;;28.70;24.92;;;;;;;19.47;100.00;101397.13;5094065;28;20421;-89
2023/09/09 01:18:43;;;;;;;30.27;24.97;;;;;;;19.43;100.00;101396.84;5093735;28;20545;-89
2023/09/09 01:21:12;;;;;;;29.48;25.70;;;;;;;19.40;100.00;101394.59;5093908;28;20059;-88
2023/09/09 01:23:48;;;;;;;31.75;26.48;;;;;;;19.37;100.00;101391.53;5095145;28;20024;-89
2023/09/09 01:26:15;;;;;;;30.73;26.85;;;;;;;19.31;100.00;101392.56;5078440;28;20032;-89
2023/09/09 01:28:56;;;;;;;35.92;26.67;;;;;;;19.27;100.00;101390.34;5076984;28;20387;-89
2023/09/09 01:31:24;;;;;;;34.60;27.73;;;;;;;19.23;100.00;101391.97;5093821;28;20128;-89
2023/09/09 01:33:56;;;;;;;33.20;27.73;;;;;;;19.19;100.00;101385.34;5093019;28;20426;-89
2023/09/09 01:36:26;;;;;;;32.95;27.70;;;;;;;19.17;100.00;101387.50;5093532;28;20400;-89
2023/09/09 01:38:52;;;;;;;32.75;27.83;;;;;;;19.16;100.00;101385.84;5094676;28;20061;-89
2023/09/09 01:41:23;;;;;;;31.00;26.27;;;;;;;19.17;100.00;101397.69;5093613;28;20118;-89
2023/09/09 01:43:51;;;;;;;41.45;31.15;;;;;;;19.15;100.00;101388.84;5095034;28;20089;-89
2023/09/09 01:46:16;;;;;;;33.53;26.80;;;;;;;19.11;100.00;101394.88;5093136;28;20028;-89
2023/09/09 01:48:44;;;;;;;34.83;26.17;;;;;;;19.09;100.00;101397.06;5092900;28;20353;-89
2023/09/09 01:51:09;;;;;;;35.67;29.35;;;;;;;19.09;100.00;101388.00;5093064;28;20479;-89
2023/09/09 01:53:35;;;;;;;31.23;26.17;;;;;;;19.07;100.00;101399.25;5093063;28;20081;-88
2023/09/09 01:56:01;;;;;;;32.92;27.38;;;;;;;19.05;100.00;101390.41;5094355;28;20375;-88
2023/09/09 01:58:31;;;;;;;35.53;28.17;;;;;;;19.01;100.00;101386.50;5093391;28;20035;-88
2023/09/09 02:00:57;;;;;;;40.47;32.08;;;;;;;18.96;100.00;101388.41;5093328;28;20055;-88
2023/09/09 02:03:24;;;;;;;42.73;33.67;;;;;;;18.91;100.00;101387.25;5092801;28;20468;-88
2023/09/09 02:05:52;;;;;;;45.25;34.22;;;;;;;18.83;100.00;101387.66;5092885;28;20032;-88
2023/09/09 02:08:18;;;;;;;43.28;34.45;;;;;;;18.82;100.00;101379.69;5093050;28;20130;-88
2023/09/09 02:10:43;;;;;;;46.10;35.53;;;;;;;18.78;100.00;101379.38;5092738;28;20039;-89
2023/09/09 02:13:12;;;;;;;44.17;34.80;;;;;;;18.76;100.00;101382.38;5109951;28;20111;-89
2023/09/09 02:15:37;;;;;;;40.20;33.97;;;;;;;18.73;100.00;101379.31;5092586;28;20028;-88
2023/09/09 02:18:09;;;;;;;39.88;33.03;;;;;;;18.73;100.00;101374.66;5075685;28;20059;-89
2023/09/09 02:20:34;;;;;;;40.00;31.70;;;;;;;18.75;100.00;101382.66;5076352;28;20039;-89
2023/09/09 02:23:00;;;;;;;40.42;32.70;;;;;;;18.72;100.00;101380.38;5075715;28;20468;-89
2023/09/09 02:25:30;;;;;;;41.07;34.00;;;;;;;18.71;100.00;101382.31;5092890;28;20036;-89
2023/09/09 02:27:58;;;;;;;57.22;42.42;;;;;;;18.69;100.00;101387.25;5093933;28;20042;-88
2023/09/09 02:30:24;;;;;;;55.53;42.95;;;;;;;18.72;100.00;101396.88;5092434;28;20102;-88
2023/09/09 02:32:55;;;;;;;56.00;43.67;;;;;;;18.67;100.00;101386.66;5094333;28;20032;-88
2023/09/09 02:35:20;;;;;;;61.50;46.72;;;;;;;18.62;100.00;101383.88;5092571;28;20082;-89
2023/09/09 02:37:46;;;;;;;58.67;45.33;;;;;;;18.61;100.00;101387.69;5094238;28;20460;-88
2023/09/09 02:40:16;;;;;;;58.67;45.00;;;;;;;18.61;100.00;101390.44;5076041;28;20055;-88
2023/09/09 02:42:42;;;;;;;62.30;47.05;;;;;;;18.57;100.00;101389.28;5076141;28;20039;-88
2023/09/09 02:45:08;;;;;;;61.37;47.13;;;;;;;18.51;100.00;101384.81;5092596;28;20417;-88
2023/09/09 02:47:36;;;;;;;61.78;45.72;;;;;;;18.50;100.00;101392.22;5093813;28;20064;-88
2023/09/09 02:50:02;;;;;;;63.20;45.28;;;;;;;18.48;100.00;101391.66;5093795;28;20540;-88
2023/09/09 02:52:30;;;;;;;62.17;45.58;;;;;;;18.48;100.00;101390.81;5092253;28;20020;-88
2023/09/09 02:54:58;;;;;;;61.22;45.83;;;;;;;18.48;100.00;101390.81;5093148;28;20471;-88
2023/09/09 02:57:23;;;;;;;68.23;50.73;;;;;;;18.44;100.00;101386.91;5109390;28;20028;-88
2023/09/09 02:59:49;;;;;;;72.05;49.90;;;;;;;18.44;100.00;101387.78;5092153;28;20085;-88
2023/09/09 03:02:17;;;;;;;64.73;47.80;;;;;;;18.41;100.00;101383.59;5092951;28;20059;-88
2023/09/09 03:04:42;;;;;;;59.70;45.67;;;;;;;18.42;100.00;101395.41;5091938;28;20088;-88
2023/09/09 03:07:15;;;;;;;65.53;48.53;;;;;;;18.40;100.00;101394.84;5092106;28;20118;-88
2023/09/09 03:09:45;;;;;;;60.88;45.88;;;;;;;18.33;100.00;101383.22;5092130;28;20128;-88
2023/09/09 03:12:11;;;;;;;56.88;44.85;;;;;;;18.30;100.00;101381.81;5093596;28;20460;-88
2023/09/09 03:14:38;;;;;;;61.83;47.10;;;;;;;18.30;100.00;101386.47;5092117;28;20031;-89
2023/09/09 03:17:07;;;;;;;63.35;47.88;;;;;;;18.26;100.00;101386.13;5092348;28;20032;-89
2023/09/09 03:19:38;;;;;;;69.63;51.60;;;;;;;18.26;100.00;101382.56;5092199;28;20036;-89
2023/09/09 03:22:03;;;;;;;71.15;51.60;;;;;;;18.23;100.00;101384.75;5075415;28;20085;-89
2023/09/09 03:24:31;;;;;;;71.87;51.00;;;;;;;18.18;100.00;101381.91;5075515;28;20131;-89
2023/09/09 03:26:57;;;;;;;62.42;47.20;;;;;;;18.16;100.00;101381.34;5092096;28;20032;-88
2023/09/09 03:29:25;;;;;;;68.30;52.07;;;;;;;18.14;100.00;101393.66;5093229;28;20486;-89
2023/09/09 03:31:56;;;;;;;70.63;50.45;;;;;;;18.10;100.00;101384.25;5092074;28;20020;-88
2023/09/09 03:34:24;;;;;;;73.13;51.17;;;;;;;18.02;100.00;101382.78;5091542;28;20036;-89
2023/09/09 03:36:50;;;;;;;73.00;52.15;;;;;;;18.01;100.00;101379.22;5091679;28;20130;-88
2023/09/09 03:39:23;;;;;;;68.60;51.60;;;;;;;17.98;100.00;101379.72;5093140;28;20042;-88
2023/09/09 03:41:48;;;;;;;71.05;52.53;;;;;;;17.92;100.00;101382.63;5074990;28;20473;-89
2023/09/09 03:44:16;;;;;;;69.50;51.23;;;;;;;17.88;100.00;101385.03;5091337;28;20486;-88
2023/09/09 03:46:44;;;;;;;72.00;51.13;;;;;;;17.88;100.00;101385.84;5091771;28;20028;-89
2023/09/09 03:49:11;;;;;;;73.80;53.88;;;;;;;17.83;100.00;101391.28;5091438;28;20036;-88
2023/09/09 03:51:39;;;;;;;72.83;53.70;;;;;;;17.80;100.00;101388.19;5093106;28;20430;-88
2023/09/09 03:54:06;;;;;;;69.43;52.00;;;;;;;17.75;100.00;101388.13;5074680;28;20054;-88
2023/09/09 03:56:34;;;;;;;72.40;52.15;;;;;;;17.70;100.00;101392.44;5092146;28;20117;-89
2023/09/09 03:59:00;;;;;;;76.78;53.60;;;;;;;17.70;100.00;101391.59;5091921;28;20028;-89
2023/09/09 04:01:31;;;;;;;68.57;52.23;;;;;;;17.67;100.00;101397.59;5092921;28;20130;-88
2023/09/09 04:03:56;;;;;;;73.60;51.80;;;;;;;17.65;100.00;101392.34;5091894;28;20047;-89
2023/09/09 04:06:22;;;;;;;72.30;54.03;;;;;;;17.63;100.00;101401.94;5093163;28;20487;-88
2023/09/09 04:08:49;;;;;;;80.45;57.63;;;;;;;17.60;100.00;101397.78;5095421;28;20102;-88
2023/09/09 04:11:18;;;;;;;87.37;60.70;;;;;;;17.56;100.00;101393.84;5078717;28;20032;-88
2023/09/09 04:13:44;;;;;;;76.82;55.45;;;;;;;17.56;100.00;101399.34;5096635;28;20028;-88
2023/09/09 04:16:14;;;;;;;71.93;51.75;;;;;;;17.51;100.00;101396.53;5095623;28;20032;-88
2023/09/09 04:18:40;;;;;;;68.67;49.70;;;;;;;17.51;100.00;101396.53;5078656;28;20036;-88
2023/09/09 04:21:06;;;;;;;70.63;50.85;;;;;;;17.49;100.00;101398.66;5096226;28;20070;-88
2023/09/09 04:23:37;;;;;;;71.38;51.28;;;;;;;17.44;100.00;101395.84;5096140;28;20028;-88
2023/09/09 04:26:02;;;;;;;70.50;50.17;;;;;;;17.41;100.00;101397.19;5095134;28;20067;-88
2023/09/09 04:28:30;;;;;;;79.43;56.60;;;;;;;17.40;100.00;101391.94;5096360;28;20032;-88
2023/09/09 04:30:55;;;;;;;80.85;55.97;;;;;;;17.37;100.00;101396.00;5094903;28;20020;-88
2023/09/09 04:33:21;;;;;;;85.20;61.87;;;;;;;17.35;100.00;101401.72;5094918;28;20027;-88
2023/09/09 04:35:46;;;;;;;82.83;59.90;;;;;;;17.32;100.00;101396.75;5094253;28;20093;-89
2023/09/09 04:38:21;;;;;;;81.83;59.63;;;;;;;17.31;100.00;101408.78;5113686;28;20280;-88
2023/09/09 04:41:02;;;;;;;92.10;65.38;;;;;;;17.26;100.00;101408.72;5116700;28;20024;-88
2023/09/09 04:43:27;;;;;;;87.20;63.22;;;;;;;17.25;100.00;101408.94;5115265;28;20023;-88
2023/09/09 04:45:53;;;;;;;86.20;62.20;;;;;;;17.17;100.00;101410.19;5116644;28;20382;-88
2023/09/09 04:48:18;;;;;;;85.57;63.43;;;;;;;17.13;100.00;101409.84;5115407;28;20035;-89
2023/09/09 04:50:48;;;;;;;89.37;61.43;;;;;;;17.08;100.00;101404.28;5114714;28;20031;-89
2023/09/09 04:53:16;;;;;;;90.38;65.10;;;;;;;17.08;100.00;101411.66;5115365;28;20031;-89
2023/09/09 04:55:41;;;;;;;96.07;68.60;;;;;;;17.03;100.00;101414.31;5098250;28;20070;-89
2023/09/09 04:58:10;;;;;;;99.83;70.73;;;;;;;16.98;100.00;101410.38;5097601;28;20535;-89
2023/09/09 05:00:36;;;;;;;100.90;72.00;;;;;;;16.93;100.00;101414.94;5114692;28;20032;-89
2023/09/09 05:03:04;;;;;;;102.17;72.00;;;;;;;16.89;100.00;101409.13;5114935;28;20113;-88
2023/09/09 05:05:29;;;;;;;103.55;74.72;;;;;;;16.82;100.00;101402.91;5115755;28;20081;-89
2023/09/09 05:07:55;;;;;;;112.95;75.82;;;;;;;16.80;100.00;101410.53;5114642;28;20035;-89
2023/09/09 05:10:22;;;;;;;104.83;74.10;;;;;;;16.78;100.00;101412.69;5114598;28;20027;-88
2023/09/09 05:12:53;;;;;;;98.82;72.80;;;;;;;16.75;100.00;101414.00;5115945;28;20106;-88
2023/09/09 05:15:21;;;;;;;182.97;80.60;;;;;;;16.77;100.00;101413.75;5115099;28;20039;-89
2023/09/09 05:17:48;;;;;;;107.82;76.30;;;;;;;16.78;100.00;101416.25;5114057;28;20429;-89
2023/09/09 05:20:14;;;;;;;175.07;82.28;;;;;;;16.83;100.00;101413.63;5115748;28;20034;-89
2023/09/09 05:22:49;;;;;;;140.60;86.20;;;;;;;16.91;100.00;101417.09;5114294;28;20032;-89
2023/09/09 05:25:15;;;;;;;360.13;86.75;;;;;;;16.88;100.00;101420.31;5114464;28;20023;-89
2023/09/09 05:27:43;;;;;;;215.93;87.13;;;;;;;16.84;100.00;101429.00;5096877;28;20030;-89
2023/09/09 05:30:12;;;;;;;124.28;82.35;;;;;;;16.89;100.00;101421.97;5114130;28;20031;-86
2023/09/09 05:32:38;;;;;;;249.20;89.63;;;;;;;16.90;100.00;101427.19;5113915;28;20035;-89
2023/09/09 05:35:15;;;;;;;173.38;89.75;;;;;;;16.94;100.00;101420.16;5114715;28;20019;-86
2023/09/09 05:37:45;;;;;;;133.35;87.97;;;;;;;17.08;100.00;101434.44;5114056;28;20047;-89
2023/09/09 05:40:11;;;;;;;145.85;86.53;;;;;;;17.17;100.00;101432.13;5114031;28;20055;-88
2023/09/09 05:42:39;;;;;;;533.00;95.67;;;;;;;17.12;100.00;101438.31;5113381;28;20050;-87
2023/09/09 05:45:05;;;;;;;510.67;95.00;;;;;;;17.09;100.00;101433.31;5113564;28;20038;-87
2023/09/09 05:47:31;;;;;;;589.90;98.03;;;;;;;17.00;100.00;101434.81;5115396;28;20031;-87
2023/09/09 05:49:59;;;;;;;278.73;92.20;;;;;;;16.99;100.00;101436.72;5114302;28;20036;-87
2023/09/09 05:52:24;;;;;;;130.23;90.40;;;;;;;17.12;100.00;101434.75;5113593;28;20380;-87
2023/09/09 05:54:50;;;;;;;256.38;90.85;;;;;;;17.15;100.00;101440.56;5096711;28;20067;-87
2023/09/09 05:57:15;;;;;;;269.70;83.40;;;;;;;17.19;100.00;101443.66;5113667;28;20024;-87
2023/09/09 05:59:41;;;;;;;293.53;85.37;;;;;;;17.13;100.00;101450.13;5114678;28;20035;-88
2023/09/09 06:02:07;;;;;;;221.88;85.75;;;;;;;17.13;100.00;101450.13;5113513;28;20068;-87
2023/09/09 06:04:32;;;;;;;248.47;83.73;;;;;;;17.12;100.00;101448.47;5112783;28;20494;-88
2023/09/09 06:06:58;;;;;;;182.68;80.78;;;;;;;17.09;100.00;101448.97;5113517;28;20028;-87
2023/09/09 06:09:23;;;;;;;210.93;83.60;;;;;;;17.09;100.00;101447.03;5113680;28;20024;-88
2023/09/09 06:11:50;;;;;;;191.63;78.10;;;;;;;17.11;100.00;101453.13;5113116;28;20498;-90
2023/09/09 06:14:15;;;;;;;149.02;77.35;;;;;;;17.11;100.00;101452.28;5113241;28;20046;-87
2023/09/09 06:16:41;;;;;;;194.33;75.43;;;;;;;17.08;100.00;101459.09;5113092;28;20468;-87
2023/09/09 06:19:07;;;;;;;185.68;75.20;;;;;;;16.99;100.00;101449.56;5113150;28;20491;-87
2023/09/09 06:21:32;;;;;;;152.90;72.57;;;;;;;16.97;100.00;101449.81;5112913;28;20375;-87
2023/09/09 06:23:58;;;;;;;114.43;68.53;;;;;;;17.00;100.00;101457.56;5113231;28;20023;-87
2023/09/09 06:26:33;;;;;;;96.17;65.53;;;;;;;17.04;100.00;101462.56;5112843;28;20035;-87
2023/09/09 06:28:58;;;;;;;84.20;64.70;;;;;;;17.04;100.00;101465.28;5113696;28;20027;-87
2023/09/09 06:31:24;;;;;;;82.57;64.60;;;;;;;17.02;100.00;101465.53;5114192;28;20027;-87
2023/09/09 06:33:49;;;;;;;78.63;63.93;;;;;;;17.05;100.00;101472.44;5112909;28;20031;-87
2023/09/09 06:36:16;;;;;;;79.93;64.97;;;;;;;17.04;100.00;101476.25;5113814;28;20083;-86
2023/09/09 06:38:41;;;;;;;78.73;65.10;;;;;;;17.08;100.00;101472.81;5112933;28;20493;-87
2023/09/09 06:41:07;;;;;;;74.45;64.82;;;;;;;17.16;100.00;101477.06;5112790;28;20114;-87
2023/09/09 06:43:33;;;;;;;74.13;64.77;;;;;;;17.17;100.00;101479.56;5112948;28;20467;-87
2023/09/09 06:46:01;;;;;;;74.15;63.80;;;;;;;17.27;100.00;101478.09;5113150;28;20472;-88
2023/09/09 06:48:28;;;;;;;75.57;66.68;;;;;;;17.28;100.00;101472.34;5112587;28;20020;-86
2023/09/09 06:50:56;;;;;;;73.60;63.53;;;;;;;17.33;100.00;101477.09;5114024;28;20397;-86
2023/09/09 06:53:24;;;;;;;77.88;66.95;;;;;;;17.37;100.00;101489.25;5113902;28;20076;-86
2023/09/09 06:56:13;;;;;;;77.25;66.18;;;;;;;17.45;100.00;101488.00;5114328;28;20062;-90
2023/09/09 06:58:38;;;;;;;80.05;66.57;;;;;;;17.52;100.00;101489.56;5112661;28;20080;-87
2023/09/09 07:01:04;;;;;;;78.37;67.73;;;;;;;17.62;100.00;101491.63;5113771;28;20032;-86
2023/09/09 07:03:32;;;;;;;85.10;68.90;;;;;;;17.70;100.00;101499.47;5112464;28;20019;-88
2023/09/09 07:06:03;;;;;;;87.43;71.07;;;;;;;17.77;100.00;101491.06;5111885;28;20047;-87
2023/09/09 07:08:32;;;;;;;84.20;69.47;;;;;;;17.84;100.00;101493.66;5112368;28;20960;-87
2023/09/09 07:10:59;;;;;;;84.07;68.78;;;;;;;17.92;100.00;101495.19;5112216;28;20054;-90
2023/09/09 07:13:33;;;;;;;88.80;71.97;;;;;;;17.93;100.00;101497.69;5112492;28;20032;-89
2023/09/09 07:16:01;;;;;;;102.70;77.50;;;;;;;17.96;100.00;101490.88;5114011;28;20031;-89
2023/09/09 07:18:31;;;;;;;106.60;79.60;;;;;;;18.01;100.00;101500.03;5111983;28;20066;-90
2023/09/09 07:20:58;;;;;;;103.57;79.40;;;;;;;18.11;100.00;101498.53;5112655;28;20032;-90
2023/09/09 07:23:23;;;;;;;104.65;78.97;;;;;;;18.19;100.00;101501.69;5112221;28;20046;-90
2023/09/09 07:25:49;;;;;;;100.93;78.27;;;;;;;18.26;100.00;101500.66;5112420;28;20031;-89
2023/09/09 07:28:14;;;;;;;104.37;80.40;;;;;;;18.37;100.00;101510.75;5113616;28;20452;-90
2023/09/09 07:30:40;;;;;;;98.50;78.35;;;;;;;18.45;100.00;101501.22;5113536;28;20106;-90
2023/09/09 07:33:06;;;;;;;102.83;80.57;;;;;;;18.51;100.00;101501.06;5112587;28;20035;-89
2023/09/09 07:35:35;;;;;;;99.78;77.78;;;;;;;18.65;100.00;101511.69;5111671;28;20031;-90
2023/09/09 07:38:02;;;;;;;100.45;77.45;;;;;;;18.71;100.00;101516.16;5112168;28;20136;-90
2023/09/09 07:40:30;;;;;;;103.63;79.43;;;;;;;18.79;100.00;101514.91;5113928;28;20165;-89
2023/09/09 07:43:33;;;;;;;103.20;80.93;;;;;;;18.89;100.00;101512.31;5116079;28;20027;-91
2023/09/09 07:46:08;;;;;;;103.13;80.37;;;;;;;18.97;100.00;101511.88;5057334;28;20091;-89
2023/09/09 07:48:36;;;;;;;111.13;85.50;;;;;;;19.04;100.00;101514.41;5117493;28;20095;-90
2023/09/09 07:51:02;;;;;;;112.30;85.20;;;;;;;19.09;100.00;101520.00;5098668;28;20472;-90
2023/09/09 07:53:28;;;;;;;118.18;90.10;;;;;;;19.15;100.00;101512.63;5115837;28;20096;-90
2023/09/09 07:55:53;;;;;;;109.67;84.73;;;;;;;19.24;100.00;101519.34;5116060;28;20519;-90
2023/09/09 07:58:19;;;;;;;110.80;84.43;;;;;;;19.32;100.00;101520.81;5116241;28;20031;-89
2023/09/09 08:00:45;;;;;;;108.70;83.50;;;;;;;19.40;100.00;101518.44;5115682;28;20386;-89
2023/09/09 08:03:13;;;;;;;114.80;88.87;;;;;;;19.51;100.00;101527.59;5115754;28;20023;-89
2023/09/09 08:05:40;;;;;;;113.32;87.93;;;;;;;19.59;100.00;101521.66;5113553;28;20027;-90
2023/09/09 08:08:08;;;;;;;111.15;88.07;;;;;;;19.68;100.00;101529.44;5104213;28;20038;-91
2023/09/09 08:10:34;;;;;;;108.38;87.47;;;;;;;19.76;100.00;101523.47;5115570;28;20032;-91
2023/09/09 08:13:01;;;;;;;116.85;90.55;;;;;;;19.87;100.00;101524.41;5116938;28;20434;-91
2023/09/09 08:15:31;;;;;;;113.07;86.70;;;;;;;19.99;100.00;101525.09;5116847;28;20034;-92
2023/09/09 08:17:57;;;;;;;109.55;86.45;;;;;;;20.08;100.00;101522.69;5105652;28;20035;-92
2023/09/09 08:20:23;;;;;;;104.75;84.22;;;;;;;20.17;100.00;101537.63;5095470;28;20127;-92
2023/09/09 08:22:49;;;;;;;102.33;83.30;;;;;;;20.22;100.00;101537.66;5095118;28;20023;-92
2023/09/09 08:25:14;;;;;;;102.43;82.25;;;;;;;20.31;100.00;101538.00;5095118;28;20081;-91
2023/09/09 08:27:42;;;;;;;98.20;80.07;;;;;;;20.38;100.00;101541.34;5095889;28;20459;-93
2023/09/09 08:30:10;;;;;;;106.25;84.93;;;;;;;20.49;100.00;101543.09;5096670;28;20050;-93
2023/09/09 08:32:40;;;;;;;99.50;79.60;;;;;;;20.53;100.00;101543.38;5095249;28;20031;-92
2023/09/09 08:35:06;;;;;;;103.45;80.03;;;;;;;20.61;100.00;101536.53;5094573;28;20032;-92
2023/09/09 08:37:32;;;;;;;93.40;74.53;;;;;;;20.67;100.00;101538.28;5096797;28;20059;-94
2023/09/09 08:39:57;;;;;;;93.80;73.82;;;;;;;20.74;100.00;101544.34;5112405;28;20035;-93
2023/09/09 08:42:42;;;;;;;94.20;75.00;;;;;;;20.83;100.00;101544.69;5116112;28;20035;-93
2023/09/09 08:45:33;;;;;;;93.88;75.20;;;;;;;20.90;100.00;101544.47;5116217;28;20497;-93
2023/09/09 08:48:09;;;;;;;88.25;69.35;;;;;;;20.99;100.00;101554.72;5116383;28;20019;-94
2023/09/09 08:50:39;;;;;;;86.15;68.45;;;;;;;21.10;100.00;101546.50;5096557;28;20089;-93
2023/09/09 08:53:08;;;;;;;86.80;68.63;;;;;;;21.18;100.00;101543.19;5095262;28;20119;-93
2023/09/09 08:55:37;;;;;;;84.50;67.63;;;;;;;21.27;100.00;101552.59;5096660;28;20028;-93
2023/09/09 08:58:06;;;;;;;61.17;49.20;;;;;;;21.37;100.00;101549.06;5096788;28;20036;-92
2023/09/09 09:00:37;;;;;;;77.40;58.65;;;;;;;21.44;100.00;101549.63;5109889;28;20036;-94
2023/09/09 09:03:04;;;;;;;69.32;56.28;;;;;;;21.52;100.00;101549.13;5116325;28;20095;-93
2023/09/09 09:05:33;;;;;;;68.83;54.87;;;;;;;21.64;100.00;101554.41;5115487;28;20054;-93
2023/09/09 09:08:00;;;;;;;66.25;52.95;;;;;;;21.78;100.00;101562.19;5116787;28;20027;-93
2023/09/09 09:10:39;;;;;;;47.28;39.38;;;;;;;21.85;100.00;101549.75;5105152;28;20055;-93
2023/09/09 09:13:07;;;;;;;55.30;38.13;;;;;;;21.96;100.00;101555.28;5111434;28;20067;-94
2023/09/09 09:15:35;;;;;;;45.45;37.47;;;;;;;22.04;100.00;101552.81;5114457;28;20035;-91
2023/09/09 09:18:03;;;;;;;42.80;33.73;;;;;;;22.14;100.00;101556.66;5114399;28;20099;-90
2023/09/09 09:20:31;;;;;;;45.25;35.75;;;;;;;22.27;100.00;101556.13;5107898;28;20483;-92
2023/09/09 09:23:15;;;;;;;57.60;45.15;;;;;;;22.34;100.00;101561.41;5096220;28;20032;-96
2023/09/09 09:25:47;;;;;;;50.17;41.65;;;;;;;22.48;100.00;101565.22;5095113;28;20487;-91
2023/09/09 09:28:16;;;;;;;45.00;37.03;;;;;;;22.54;100.00;101566.06;5093923;28;20612;-91
2023/09/09 09:30:45;;;;;;;35.53;29.60;;;;;;;22.65;100.00;101562.19;5093656;28;20051;-91
2023/09/09 09:33:18;;;;;;;37.80;30.13;;;;;;;22.70;100.00;101559.38;5093640;28;20031;-91
2023/09/09 09:35:46;;;;;;;23.50;18.40;;;;;;;22.84;99.77;101554.13;5093352;28;20035;-91
2023/09/09 09:38:14;;;;;;;19.52;14.75;;;;;;;22.94;96.17;101556.00;5093301;28;20044;-90
2023/09/09 09:40:45;;;;;;;26.95;22.77;;;;;;;23.11;97.10;101553.75;5093547;28;20035;-91
2023/09/09 09:43:18;;;;;;;25.87;17.97;;;;;;;23.25;95.68;101555.91;5076830;28;20046;-90
2023/09/09 09:45:44;;;;;;;15.15;12.50;;;;;;;23.35;88.45;101552.28;5093908;28;20164;-90
2023/09/09 09:48:25;;;;;;;12.40;10.63;;;;;;;23.48;90.68;101546.94;5093244;28;20020;-90
2023/09/09 09:51:13;;;;;;;15.57;13.73;;;;;;;23.58;88.20;101546.06;5092914;28;20035;-91
2023/09/09 09:53:53;;;;;;;14.47;12.33;;;;;;;23.76;86.62;101546.50;5077413;28;20421;-91
2023/09/09 09:56:21;;;;;;;13.02;11.43;;;;;;;23.92;85.56;101550.00;5093460;28;20079;-90
2023/09/09 09:58:49;;;;;;;14.30;12.60;;;;;;;23.98;81.64;101551.63;5093091;28;20035;-90
2023/09/09 10:01:15;;;;;;;14.82;13.23;;;;;;;24.16;82.57;101553.69;5093011;28;20020;-91
2023/09/09 10:03:44;;;;;;;9.67;8.23;;;;;;;24.30;76.18;101553.84;5092959;28;20032;-91
2023/09/09 10:06:22;;;;;;;12.52;9.88;;;;;;;24.43;78.12;101548.72;5092902;28;20490;-90
2023/09/09 10:09:20;;;;;;;18.55;13.77;;;;;;;24.58;82.04;101553.28;5094519;28;20040;-90
2023/09/09 10:12:10;;;;;;;22.00;16.80;;;;;;;24.77;84.69;101548.66;5089280;28;20035;-91
2023/09/09 10:14:41;;;;;;;18.67;15.83;;;;;;;25.02;82.14;101558.66;5092903;28;20039;-90
2023/09/09 10:17:15;;;;;;;14.70;13.02;;;;;;;25.16;73.04;101547.66;5092704;28;20028;-90
2023/09/09 10:19:53;;;;;;;12.75;11.45;;;;;;;25.29;76.43;101548.88;5093570;28;20035;-90
2023/09/09 10:22:27;;;;;;;12.98;11.57;;;;;;;25.43;75.33;101551.75;5109980;28;20034;-90
2023/09/09 10:24:55;;;;;;;15.95;13.45;;;;;;;25.60;77.20;101547.63;5093910;28;20024;-90
2023/09/09 10:27:27;;;;;;;14.63;12.17;;;;;;;25.79;78.25;101548.44;5094133;28;20032;-90
2023/09/09 10:29:54;;;;;;;13.80;12.25;;;;;;;26.04;74.75;101544.50;5092834;28;20032;-90
2023/09/09 10:32:26;;;;;;;15.07;11.52;;;;;;;26.37;74.46;101535.31;5092587;28;20032;-90
2023/09/09 10:35:05;;;;;;;15.57;11.98;;;;;;;26.66;73.27;101537.78;5076421;28;20062;-90
2023/09/09 10:37:46;;;;;;;13.95;12.05;;;;;;;26.86;71.20;101542.16;5092395;28;20048;-90
2023/09/09 10:40:14;;;;;;;12.93;10.63;;;;;;;27.02;68.19;101541.84;5092606;28;20047;-89
2023/09/09 10:42:44;;;;;;;10.43;8.45;;;;;;;27.20;66.59;101545.66;5092287;28;20039;-89
2023/09/09 10:45:32;;;;;;;10.35;7.75;;;;;;;27.34;67.01;101537.28;5092670;28;20024;-91
2023/09/09 10:48:13;;;;;;;9.23;8.27;;;;;;;27.48;65.30;101535.31;5092678;28;20036;-90
2023/09/09 10:50:49;;;;;;;8.98;7.60;;;;;;;27.69;65.52;101541.22;5075176;28;20130;-90
2023/09/09 10:53:21;;;;;;;9.93;7.53;;;;;;;28.01;65.68;101539.38;5092284;28;20510;-90
2023/09/09 10:55:51;;;;;;;9.57;7.60;;;;;;;28.15;62.37;101534.53;5092528;28;20028;-90
2023/09/09 10:58:18;;;;;;;8.18;7.35;;;;;;;28.47;62.29;101531.75;5092541;28;20036;-90
2023/09/09 11:00:51;;;;;;;5.72;5.15;;;;;;;28.60;53.66;101535.59;5092504;28;20074;-92
2023/09/09 11:03:44;;;;;;;8.63;4.85;;;;;;;28.81;53.98;101538.66;5075733;28;20566;-93
2023/09/09 11:06:32;;;;;;;6.50;5.83;;;;;;;29.15;55.36;101539.91;5094093;28;20103;-92
2023/09/09 11:09:01;;;;;;;6.50;5.53;;;;;;;29.56;51.97;101536.69;5092988;28;20036;-93
2023/09/09 11:11:54;;;;;;;6.47;5.88;;;;;;;30.52;51.10;101540.53;5092644;28;20024;-93